sensor_id;sensor_type;location;lat;lon;timestamp;temperature;humidity
3996;DHT22;2012;49.794;9.722;2022-12-29T00:01:57;9.10;99.90
3996;DHT22;2012;49.794;9.722;2022-12-29T00:04:24;9.10;99.90
3996;DHT22;2012;49.794;9.722;2022-12-29T00:06:52;9.10;99.90
3996;DHT22;2012;49.794;9.722;2022-12-29T00:09:19;9.10;99.90
3996;DHT22;2012;49.794;9.722;2022-12-29T00:11:45;9.10;99.90
3996;DHT22;2012;49.794;9.722;2022-12-29T00:14:12;9.10;99.90
3996;DHT22;2012;49.794;9.722;2022-12-29T00:16:58;9.10;99.90
3996;DHT22;2012;49.794;9.722;2022-12-29T00:19:24;9.10;99.90
3996;DHT22;2012;49.794;9.722;2022-12-29T00:22:13;9.10;99.90
3996;DHT22;2012;49.794;9.722;2022-12-29T00:25:00;8.90;99.90
3996;DHT22;2012;49.794;9.722;2022-12-29T00:27:45;9.00;99.90
3996;DHT22;2012;49.794;9.722;2022-12-29T00:30:33;9.00;99.90
3996;DHT22;2012;49.794;9.722;2022-12-29T00:33:22;9.10;99.90
3996;DHT22;2012;49.794;9.722;2022-12-29T00:36:30;9.10;99.90
3996;DHT22;2012;49.794;9.722;2022-12-29T00:39:19;9.10;99.90
3996;DHT22;2012;49.794;9.722;2022-12-29T00:42:06;9.10;99.90
3996;DHT22;2012;49.794;9.722;2022-12-29T00:44:51;9.10;99.90
3996;DHT22;2012;49.794;9.722;2022-12-29T00:47:18;9.10;99.90
3996;DHT22;2012;49.794;9.722;2022-12-29T00:49:44;9.20;99.90
3996;DHT22;2012;49.794;9.722;2022-12-29T00:52:12;9.20;99.90
3996;DHT22;2012;49.794;9.722;2022-12-29T00:54:40;9.20;99.90
3996;DHT22;2012;49.794;9.722;2022-12-29T00:57:09;9.40;99.90
3996;DHT22;2012;49.794;9.722;2022-12-29T00:59:39;9.40;99.90
3996;DHT22;2012;49.794;9.722;2022-12-29T01:02:07;9.40;99.90
3996;DHT22;2012;49.794;9.722;2022-12-29T01:04:34;9.40;99.90
3996;DHT22;2012;49.794;9.722;2022-12-29T01:07:01;9.40;99.90
3996;DHT22;2012;49.794;9.722;2022-12-29T01:09:28;9.40;99.90
3996;DHT22;2012;49.794;9.722;2022-12-29T01:12:13;9.40;99.90
3996;DHT22;2012;49.794;9.722;2022-12-29T01:14:40;9.40;99.90
3996;DHT22;2012;49.794;9.722;2022-12-29T01:17:07;9.30;99.90
3996;DHT22;2012;49.794;9.722;2022-12-29T01:19:34;9.30;99.90
3996;DHT22;2012;49.794;9.722;2022-12-29T01:22:00;9.40;99.90
3996;DHT22;2012;49.794;9.722;2022-12-29T01:24:27;9.30;99.90
3996;DHT22;2012;49.794;9.722;2022-12-29T01:26:54;9.40;99.90
3996;DHT22;2012;49.794;9.722;2022-12-29T01:29:21;9.40;99.90
3996;DHT22;2012;49.794;9.722;2022-12-29T01:31:48;9.40;99.90
3996;DHT22;2012;49.794;9.722;2022-12-29T01:34:16;9.40;99.90
3996;DHT22;2012;49.794;9.722;2022-12-29T01:36:43;9.50;99.90
3996;DHT22;2012;49.794;9.722;2022-12-29T01:39:10;9.50;99.90
3996;DHT22;2012;49.794;9.722;2022-12-29T01:41:37;9.50;99.90
3996;DHT22;2012;49.794;9.722;2022-12-29T01:44:46;9.60;99.90
3996;DHT22;2012;49.794;9.722;2022-12-29T01:47:26;9.60;99.90
3996;DHT22;2012;49.794;9.722;2022-12-29T01:49:58;9.70;99.90
3996;DHT22;2012;49.794;9.722;2022-12-29T01:52:28;9.80;99.90
3996;DHT22;2012;49.794;9.722;2022-12-29T01:54:56;9.90;99.90
3996;DHT22;2012;49.794;9.722;2022-12-29T01:57:31;9.80;99.90
3996;DHT22;2012;49.794;9.722;2022-12-29T02:00:04;9.80;99.90
3996;DHT22;2012;49.794;9.722;2022-12-29T02:02:31;9.80;99.90
3996;DHT22;2012;49.794;9.722;2022-12-29T02:05:03;9.80;99.90
3996;DHT22;2012;49.794;9.722;2022-12-29T02:07:31;9.80;99.90
3996;DHT22;2012;49.794;9.722;2022-12-29T02:09:58;9.80;99.90
3996;DHT22;2012;49.794;9.722;2022-12-29T02:12:26;9.70;99.90
3996;DHT22;2012;49.794;9.722;2022-12-29T02:14:57;9.70;99.90
3996;DHT22;2012;49.794;9.722;2022-12-29T02:31:29;9.60;99.90
3996;DHT22;2012;49.794;9.722;2022-12-29T02:37:03;9.60;99.90
3996;DHT22;2012;49.794;9.722;2022-12-29T02:39:40;9.60;99.90
3996;DHT22;2012;49.794;9.722;2022-12-29T02:45:31;9.60;99.90
3996;DHT22;2012;49.794;9.722;2022-12-29T02:50:42;9.60;99.90
3996;DHT22;2012;49.794;9.722;2022-12-29T02:53:14;9.50;99.90
3996;DHT22;2012;49.794;9.722;2022-12-29T02:55:49;9.60;99.90
3996;DHT22;2012;49.794;9.722;2022-12-29T02:58:19;9.60;99.90
3996;DHT22;2012;49.794;9.722;2022-12-29T03:03:51;9.50;99.90
3996;DHT22;2012;49.794;9.722;2022-12-29T03:06:51;9.60;99.90
3996;DHT22;2012;49.794;9.722;2022-12-29T03:09:42;9.50;99.90
3996;DHT22;2012;49.794;9.722;2022-12-29T03:15:24;9.60;99.90
3996;DHT22;2012;49.794;9.722;2022-12-29T03:18:20;9.50;99.90
3996;DHT22;2012;49.794;9.722;2022-12-29T03:20:54;9.60;99.90
3996;DHT22;2012;49.794;9.722;2022-12-29T03:23:23;9.60;99.90
3996;DHT22;2012;49.794;9.722;2022-12-29T03:25:56;9.60;99.90
3996;DHT22;2012;49.794;9.722;2022-12-29T03:29:10;9.60;99.90
3996;DHT22;2012;49.794;9.722;2022-12-29T03:31:17;9.50;99.90
3996;DHT22;2012;49.794;9.722;2022-12-29T03:33:46;9.60;99.90
3996;DHT22;2012;49.794;9.722;2022-12-29T03:36:19;9.60;99.90
3996;DHT22;2012;49.794;9.722;2022-12-29T03:38:57;9.60;99.90
3996;DHT22;2012;49.794;9.722;2022-12-29T03:41:30;9.60;99.90
3996;DHT22;2012;49.794;9.722;2022-12-29T03:43:58;9.60;99.90
3996;DHT22;2012;49.794;9.722;2022-12-29T03:46:25;9.60;99.90
3996;DHT22;2012;49.794;9.722;2022-12-29T03:48:51;9.60;99.90
3996;DHT22;2012;49.794;9.722;2022-12-29T03:51:18;9.70;99.90
3996;DHT22;2012;49.794;9.722;2022-12-29T03:53:45;9.60;99.90
3996;DHT22;2012;49.794;9.722;2022-12-29T03:56:11;9.60;99.90
3996;DHT22;2012;49.794;9.722;2022-12-29T03:58:38;9.60;99.90
3996;DHT22;2012;49.794;9.722;2022-12-29T04:01:05;9.60;99.90
3996;DHT22;2012;49.794;9.722;2022-12-29T04:03:32;9.60;99.90
3996;DHT22;2012;49.794;9.722;2022-12-29T04:06:00;9.50;99.90
3996;DHT22;2012;49.794;9.722;2022-12-29T04:08:26;9.60;99.90
3996;DHT22;2012;49.794;9.722;2022-12-29T04:10:53;9.60;99.90
3996;DHT22;2012;49.794;9.722;2022-12-29T04:13:20;9.60;99.90
3996;DHT22;2012;49.794;9.722;2022-12-29T04:15:47;9.70;99.90
3996;DHT22;2012;49.794;9.722;2022-12-29T04:18:14;9.70;99.90
3996;DHT22;2012;49.794;9.722;2022-12-29T04:20:44;9.70;99.90
3996;DHT22;2012;49.794;9.722;2022-12-29T04:23:36;9.70;99.90
3996;DHT22;2012;49.794;9.722;2022-12-29T04:26:03;9.70;99.90
3996;DHT22;2012;49.794;9.722;2022-12-29T04:28:31;9.70;99.90
3996;DHT22;2012;49.794;9.722;2022-12-29T04:30:57;9.80;99.90
3996;DHT22;2012;49.794;9.722;2022-12-29T04:33:24;9.80;99.90
3996;DHT22;2012;49.794;9.722;2022-12-29T04:35:52;9.80;99.90
3996;DHT22;2012;49.794;9.722;2022-12-29T04:38:22;9.90;99.90
3996;DHT22;2012;49.794;9.722;2022-12-29T04:40:50;9.90;99.90
3996;DHT22;2012;49.794;9.722;2022-12-29T04:43:17;9.80;99.90
3996;DHT22;2012;49.794;9.722;2022-12-29T04:45:48;9.90;99.90
3996;DHT22;2012;49.794;9.722;2022-12-29T04:48:15;9.80;99.90
3996;DHT22;2012;49.794;9.722;2022-12-29T04:50:42;9.80;99.90
3996;DHT22;2012;49.794;9.722;2022-12-29T04:53:09;9.80;99.90
3996;DHT22;2012;49.794;9.722;2022-12-29T04:55:36;9.90;99.90
3996;DHT22;2012;49.794;9.722;2022-12-29T04:58:03;10.00;99.90
3996;DHT22;2012;49.794;9.722;2022-12-29T05:00:30;10.00;99.90
3996;DHT22;2012;49.794;9.722;2022-12-29T05:02:57;10.00;99.90
3996;DHT22;2012;49.794;9.722;2022-12-29T05:05:24;9.90;99.90
3996;DHT22;2012;49.794;9.722;2022-12-29T05:07:50;9.90;99.90
3996;DHT22;2012;49.794;9.722;2022-12-29T05:10:17;10.00;99.90
3996;DHT22;2012;49.794;9.722;2022-12-29T05:12:44;10.00;99.90
3996;DHT22;2012;49.794;9.722;2022-12-29T05:15:11;10.00;99.90
3996;DHT22;2012;49.794;9.722;2022-12-29T05:17:38;10.00;99.90
3996;DHT22;2012;49.794;9.722;2022-12-29T05:20:06;10.00;99.90
3996;DHT22;2012;49.794;9.722;2022-12-29T05:22:33;10.00;99.90
3996;DHT22;2012;49.794;9.722;2022-12-29T05:25:00;10.10;99.90
3996;DHT22;2012;49.794;9.722;2022-12-29T05:27:26;10.10;99.90
3996;DHT22;2012;49.794;9.722;2022-12-29T05:29:53;10.10;99.90
3996;DHT22;2012;49.794;9.722;2022-12-29T05:32:20;10.10;99.90
3996;DHT22;2012;49.794;9.722;2022-12-29T05:34:47;10.10;99.90
3996;DHT22;2012;49.794;9.722;2022-12-29T05:37:13;10.10;99.90
3996;DHT22;2012;49.794;9.722;2022-12-29T05:39:40;10.10;99.90
3996;DHT22;2012;49.794;9.722;2022-12-29T05:42:07;10.20;99.90
3996;DHT22;2012;49.794;9.722;2022-12-29T05:44:34;10.10;99.90
3996;DHT22;2012;49.794;9.722;2022-12-29T05:47:01;10.10;99.90
3996;DHT22;2012;49.794;9.722;2022-12-29T05:49:27;10.10;99.90
3996;DHT22;2012;49.794;9.722;2022-12-29T05:51:54;10.10;99.90
3996;DHT22;2012;49.794;9.722;2022-12-29T05:54:21;10.20;99.90
3996;DHT22;2012;49.794;9.722;2022-12-29T05:56:47;10.30;99.90
3996;DHT22;2012;49.794;9.722;2022-12-29T05:59:14;10.20;99.90
3996;DHT22;2012;49.794;9.722;2022-12-29T06:01:41;10.20;99.90
3996;DHT22;2012;49.794;9.722;2022-12-29T06:04:08;10.30;99.90
3996;DHT22;2012;49.794;9.722;2022-12-29T06:06:34;10.40;99.90
3996;DHT22;2012;49.794;9.722;2022-12-29T06:09:01;10.40;99.90
3996;DHT22;2012;49.794;9.722;2022-12-29T06:11:28;10.40;99.90
3996;DHT22;2012;49.794;9.722;2022-12-29T06:13:55;10.30;99.90
3996;DHT22;2012;49.794;9.722;2022-12-29T06:16:21;10.40;99.90
3996;DHT22;2012;49.794;9.722;2022-12-29T06:18:48;10.50;99.90
3996;DHT22;2012;49.794;9.722;2022-12-29T06:21:15;10.50;99.90
3996;DHT22;2012;49.794;9.722;2022-12-29T06:23:42;10.50;99.90
3996;DHT22;2012;49.794;9.722;2022-12-29T06:26:09;10.50;99.90
3996;DHT22;2012;49.794;9.722;2022-12-29T06:28:36;10.60;99.90
3996;DHT22;2012;49.794;9.722;2022-12-29T06:31:02;10.60;99.90
3996;DHT22;2012;49.794;9.722;2022-12-29T06:33:29;10.50;99.90
3996;DHT22;2012;49.794;9.722;2022-12-29T06:35:56;10.60;99.90
3996;DHT22;2012;49.794;9.722;2022-12-29T06:38:23;10.60;99.90
3996;DHT22;2012;49.794;9.722;2022-12-29T06:40:50;10.60;99.90
3996;DHT22;2012;49.794;9.722;2022-12-29T06:43:16;10.80;99.90
3996;DHT22;2012;49.794;9.722;2022-12-29T06:45:43;10.80;99.90
3996;DHT22;2012;49.794;9.722;2022-12-29T06:48:10;10.90;99.90
3996;DHT22;2012;49.794;9.722;2022-12-29T06:50:37;10.90;99.90
3996;DHT22;2012;49.794;9.722;2022-12-29T06:53:03;11.00;99.90
3996;DHT22;2012;49.794;9.722;2022-12-29T06:55:30;10.90;99.90
3996;DHT22;2012;49.794;9.722;2022-12-29T06:57:57;10.80;99.90
3996;DHT22;2012;49.794;9.722;2022-12-29T07:00:25;10.90;99.90
3996;DHT22;2012;49.794;9.722;2022-12-29T07:02:51;10.90;99.90
3996;DHT22;2012;49.794;9.722;2022-12-29T07:05:18;11.00;99.90
3996;DHT22;2012;49.794;9.722;2022-12-29T07:07:45;11.00;99.90
3996;DHT22;2012;49.794;9.722;2022-12-29T07:10:12;11.00;99.90
3996;DHT22;2012;49.794;9.722;2022-12-29T07:12:39;11.00;99.90
3996;DHT22;2012;49.794;9.722;2022-12-29T07:15:06;11.00;99.90
3996;DHT22;2012;49.794;9.722;2022-12-29T07:17:33;10.90;99.90
3996;DHT22;2012;49.794;9.722;2022-12-29T07:20:00;10.90;99.90
3996;DHT22;2012;49.794;9.722;2022-12-29T07:22:27;10.90;99.90
3996;DHT22;2012;49.794;9.722;2022-12-29T07:24:53;10.90;99.90
3996;DHT22;2012;49.794;9.722;2022-12-29T07:27:20;10.80;99.90
3996;DHT22;2012;49.794;9.722;2022-12-29T07:29:47;10.80;99.90
3996;DHT22;2012;49.794;9.722;2022-12-29T07:32:14;10.90;99.90
3996;DHT22;2012;49.794;9.722;2022-12-29T07:34:40;10.90;99.90
3996;DHT22;2012;49.794;9.722;2022-12-29T07:37:07;10.80;99.90
3996;DHT22;2012;49.794;9.722;2022-12-29T07:39:34;10.90;99.90
3996;DHT22;2012;49.794;9.722;2022-12-29T07:42:01;10.90;99.90
3996;DHT22;2012;49.794;9.722;2022-12-29T07:44:30;10.90;99.90
3996;DHT22;2012;49.794;9.722;2022-12-29T07:46:57;10.90;99.90
3996;DHT22;2012;49.794;9.722;2022-12-29T07:49:25;10.90;99.90
3996;DHT22;2012;49.794;9.722;2022-12-29T07:51:52;10.90;99.90
3996;DHT22;2012;49.794;9.722;2022-12-29T07:54:19;11.10;99.90
3996;DHT22;2012;49.794;9.722;2022-12-29T07:56:46;11.00;99.90
3996;DHT22;2012;49.794;9.722;2022-12-29T07:59:13;11.00;99.90
3996;DHT22;2012;49.794;9.722;2022-12-29T08:01:39;11.10;99.90
3996;DHT22;2012;49.794;9.722;2022-12-29T08:04:06;11.10;99.90
3996;DHT22;2012;49.794;9.722;2022-12-29T08:06:33;11.00;99.90
3996;DHT22;2012;49.794;9.722;2022-12-29T08:09:00;11.00;99.90
3996;DHT22;2012;49.794;9.722;2022-12-29T08:11:38;11.00;99.90
3996;DHT22;2012;49.794;9.722;2022-12-29T08:14:05;11.00;99.90
3996;DHT22;2012;49.794;9.722;2022-12-29T08:16:31;11.20;99.90
3996;DHT22;2012;49.794;9.722;2022-12-29T08:18:59;11.10;99.90
3996;DHT22;2012;49.794;9.722;2022-12-29T08:21:27;11.10;99.90
3996;DHT22;2012;49.794;9.722;2022-12-29T08:23:54;11.10;99.90
3996;DHT22;2012;49.794;9.722;2022-12-29T08:26:21;11.00;99.90
3996;DHT22;2012;49.794;9.722;2022-12-29T08:28:51;11.00;99.90
3996;DHT22;2012;49.794;9.722;2022-12-29T08:31:18;11.10;99.90
3996;DHT22;2012;49.794;9.722;2022-12-29T08:33:45;11.10;99.90
3996;DHT22;2012;49.794;9.722;2022-12-29T08:36:11;11.10;99.90
3996;DHT22;2012;49.794;9.722;2022-12-29T08:38:38;11.20;99.90
3996;DHT22;2012;49.794;9.722;2022-12-29T08:41:05;11.40;99.90
3996;DHT22;2012;49.794;9.722;2022-12-29T08:43:32;11.30;99.90
3996;DHT22;2012;49.794;9.722;2022-12-29T08:45:59;11.40;99.90
3996;DHT22;2012;49.794;9.722;2022-12-29T08:48:26;11.30;99.90
3996;DHT22;2012;49.794;9.722;2022-12-29T08:50:53;11.40;99.90
3996;DHT22;2012;49.794;9.722;2022-12-29T08:53:20;11.70;99.90
3996;DHT22;2012;49.794;9.722;2022-12-29T08:55:58;11.60;99.90
3996;DHT22;2012;49.794;9.722;2022-12-29T08:58:31;11.70;99.90
3996;DHT22;2012;49.794;9.722;2022-12-29T09:00:58;11.70;99.90
3996;DHT22;2012;49.794;9.722;2022-12-29T09:03:25;11.80;99.90
3996;DHT22;2012;49.794;9.722;2022-12-29T09:06:13;11.70;99.90
3996;DHT22;2012;49.794;9.722;2022-12-29T09:08:40;11.90;99.90
3996;DHT22;2012;49.794;9.722;2022-12-29T09:11:14;11.90;99.90
3996;DHT22;2012;49.794;9.722;2022-12-29T09:13:40;11.90;99.90
3996;DHT22;2012;49.794;9.722;2022-12-29T09:16:08;11.90;99.90
3996;DHT22;2012;49.794;9.722;2022-12-29T09:18:35;12.00;99.90
3996;DHT22;2012;49.794;9.722;2022-12-29T09:21:03;12.00;99.90
3996;DHT22;2012;49.794;9.722;2022-12-29T09:23:30;12.00;99.90
3996;DHT22;2012;49.794;9.722;2022-12-29T09:25:58;12.10;99.90
3996;DHT22;2012;49.794;9.722;2022-12-29T09:28:24;12.10;99.90
3996;DHT22;2012;49.794;9.722;2022-12-29T09:30:52;12.10;99.90
3996;DHT22;2012;49.794;9.722;2022-12-29T09:33:19;12.20;99.90
3996;DHT22;2012;49.794;9.722;2022-12-29T09:35:51;12.10;99.90
3996;DHT22;2012;49.794;9.722;2022-12-29T09:38:18;12.10;99.90
3996;DHT22;2012;49.794;9.722;2022-12-29T09:40:50;12.10;99.90
3996;DHT22;2012;49.794;9.722;2022-12-29T09:46:12;12.10;99.90
3996;DHT22;2012;49.794;9.722;2022-12-29T09:48:44;12.10;99.90
3996;DHT22;2012;49.794;9.722;2022-12-29T09:51:16;12.20;99.90
3996;DHT22;2012;49.794;9.722;2022-12-29T09:54:19;12.10;99.90
3996;DHT22;2012;49.794;9.722;2022-12-29T09:56:36;12.20;99.90
3996;DHT22;2012;49.794;9.722;2022-12-29T09:59:25;12.20;99.90
3996;DHT22;2012;49.794;9.722;2022-12-29T10:02:11;12.20;99.90
3996;DHT22;2012;49.794;9.722;2022-12-29T10:04:41;12.20;99.90
3996;DHT22;2012;49.794;9.722;2022-12-29T10:07:33;12.20;99.90
3996;DHT22;2012;49.794;9.722;2022-12-29T10:10:24;12.30;99.90
3996;DHT22;2012;49.794;9.722;2022-12-29T10:13:06;12.30;99.90
3996;DHT22;2012;49.794;9.722;2022-12-29T10:15:53;12.20;99.90
3996;DHT22;2012;49.794;9.722;2022-12-29T10:21:17;12.30;99.90
3996;DHT22;2012;49.794;9.722;2022-12-29T10:23:51;12.30;99.90
3996;DHT22;2012;49.794;9.722;2022-12-29T10:26:23;12.30;99.90
3996;DHT22;2012;49.794;9.722;2022-12-29T10:28:54;12.40;99.90
3996;DHT22;2012;49.794;9.722;2022-12-29T10:31:25;12.50;99.90
3996;DHT22;2012;49.794;9.722;2022-12-29T10:34:01;12.50;99.90
3996;DHT22;2012;49.794;9.722;2022-12-29T10:36:44;12.60;99.90
3996;DHT22;2012;49.794;9.722;2022-12-29T10:39:33;12.60;99.90
3996;DHT22;2012;49.794;9.722;2022-12-29T10:42:19;12.70;99.90
3996;DHT22;2012;49.794;9.722;2022-12-29T10:44:48;12.70;99.90
3996;DHT22;2012;49.794;9.722;2022-12-29T10:47:28;12.80;99.90
3996;DHT22;2012;49.794;9.722;2022-12-29T10:49:56;12.80;99.90
3996;DHT22;2012;49.794;9.722;2022-12-29T10:52:25;12.80;99.90
3996;DHT22;2012;49.794;9.722;2022-12-29T10:54:54;12.80;99.90
3996;DHT22;2012;49.794;9.722;2022-12-29T10:57:33;12.70;99.90
3996;DHT22;2012;49.794;9.722;2022-12-29T11:00:04;12.80;99.90
3996;DHT22;2012;49.794;9.722;2022-12-29T11:05:56;12.70;99.90
3996;DHT22;2012;49.794;9.722;2022-12-29T11:08:34;12.60;99.90
3996;DHT22;2012;49.794;9.722;2022-12-29T11:11:07;12.40;99.90
3996;DHT22;2012;49.794;9.722;2022-12-29T11:13:48;12.30;99.90
3996;DHT22;2012;49.794;9.722;2022-12-29T11:16:14;12.30;99.90
3996;DHT22;2012;49.794;9.722;2022-12-29T11:18:53;12.30;99.90
3996;DHT22;2012;49.794;9.722;2022-12-29T11:21:30;12.20;99.90
3996;DHT22;2012;49.794;9.722;2022-12-29T11:24:02;12.20;99.90
3996;DHT22;2012;49.794;9.722;2022-12-29T11:26:30;12.20;99.90
3996;DHT22;2012;49.794;9.722;2022-12-29T11:31:51;12.20;99.90
3996;DHT22;2012;49.794;9.722;2022-12-29T11:37:02;12.10;99.90
3996;DHT22;2012;49.794;9.722;2022-12-29T11:39:38;12.10;99.90
3996;DHT22;2012;49.794;9.722;2022-12-29T11:42:14;12.20;99.90
3996;DHT22;2012;49.794;9.722;2022-12-29T11:44:44;12.20;99.90
3996;DHT22;2012;49.794;9.722;2022-12-29T11:47:21;12.20;99.90
3996;DHT22;2012;49.794;9.722;2022-12-29T11:49:51;12.20;99.90
3996;DHT22;2012;49.794;9.722;2022-12-29T11:52:22;12.20;99.90
3996;DHT22;2012;49.794;9.722;2022-12-29T11:54:50;12.30;99.90
3996;DHT22;2012;49.794;9.722;2022-12-29T11:57:19;12.40;99.90
3996;DHT22;2012;49.794;9.722;2022-12-29T11:59:53;12.60;99.90
3996;DHT22;2012;49.794;9.722;2022-12-29T12:02:38;12.60;99.90
3996;DHT22;2012;49.794;9.722;2022-12-29T12:08:05;12.50;99.90
3996;DHT22;2012;49.794;9.722;2022-12-29T12:10:44;12.60;99.90
3996;DHT22;2012;49.794;9.722;2022-12-29T12:13:45;12.70;99.90
3996;DHT22;2012;49.794;9.722;2022-12-29T12:16:20;13.00;99.90
3996;DHT22;2012;49.794;9.722;2022-12-29T12:18:55;13.50;99.90
3996;DHT22;2012;49.794;9.722;2022-12-29T12:21:38;13.60;99.90
3996;DHT22;2012;49.794;9.722;2022-12-29T12:24:21;13.50;99.90
3996;DHT22;2012;49.794;9.722;2022-12-29T12:27:12;13.30;99.90
3996;DHT22;2012;49.794;9.722;2022-12-29T12:32:44;13.50;99.90
3996;DHT22;2012;49.794;9.722;2022-12-29T12:35:29;13.50;99.90
3996;DHT22;2012;49.794;9.722;2022-12-29T12:41:04;13.10;99.90
3996;DHT22;2012;49.794;9.722;2022-12-29T12:43:45;13.00;99.90
3996;DHT22;2012;49.794;9.722;2022-12-29T12:46:33;12.90;99.90
3996;DHT22;2012;49.794;9.722;2022-12-29T12:55:06;12.70;99.90
3996;DHT22;2012;49.794;9.722;2022-12-29T12:58:09;12.60;99.90
3996;DHT22;2012;49.794;9.722;2022-12-29T13:06:49;12.40;99.90
3996;DHT22;2012;49.794;9.722;2022-12-29T13:12:42;12.40;99.90
3996;DHT22;2012;49.794;9.722;2022-12-29T13:20:56;12.30;99.90
3996;DHT22;2012;49.794;9.722;2022-12-29T13:26:32;12.10;99.90
3996;DHT22;2012;49.794;9.722;2022-12-29T13:29:12;12.00;99.90
3996;DHT22;2012;49.794;9.722;2022-12-29T13:37:17;11.90;99.90
3996;DHT22;2012;49.794;9.722;2022-12-29T13:39:52;11.90;99.90
3996;DHT22;2012;49.794;9.722;2022-12-29T13:42:21;12.00;99.90
3996;DHT22;2012;49.794;9.722;2022-12-29T13:47:36;12.20;99.90
3996;DHT22;2012;49.794;9.722;2022-12-29T13:50:12;12.20;99.90
3996;DHT22;2012;49.794;9.722;2022-12-29T13:55:55;12.30;99.90
3996;DHT22;2012;49.794;9.722;2022-12-29T13:58:34;12.50;99.90
3996;DHT22;2012;49.794;9.722;2022-12-29T14:03:53;12.50;99.90
3996;DHT22;2012;49.794;9.722;2022-12-29T14:06:31;12.60;99.90
3996;DHT22;2012;49.794;9.722;2022-12-29T14:09:04;12.70;99.90
3996;DHT22;2012;49.794;9.722;2022-12-29T14:11:36;12.70;99.90
3996;DHT22;2012;49.794;9.722;2022-12-29T14:14:16;12.80;99.90
3996;DHT22;2012;49.794;9.722;2022-12-29T14:16:45;12.70;99.90
3996;DHT22;2012;49.794;9.722;2022-12-29T14:19:18;12.60;99.90
3996;DHT22;2012;49.794;9.722;2022-12-29T14:22:01;12.40;99.90
3996;DHT22;2012;49.794;9.722;2022-12-29T14:29:49;12.20;99.90
3996;DHT22;2012;49.794;9.722;2022-12-29T14:34:53;12.10;99.90
3996;DHT22;2012;49.794;9.722;2022-12-29T14:37:28;12.10;99.90
3996;DHT22;2012;49.794;9.722;2022-12-29T14:40:19;12.00;99.90
3996;DHT22;2012;49.794;9.722;2022-12-29T14:42:51;12.00;99.90
3996;DHT22;2012;49.794;9.722;2022-12-29T14:47:46;11.90;99.90
3996;DHT22;2012;49.794;9.722;2022-12-29T14:52:57;11.80;99.90
3996;DHT22;2012;49.794;9.722;2022-12-29T14:55:46;11.80;99.90
3996;DHT22;2012;49.794;9.722;2022-12-29T14:58:18;11.70;99.90
3996;DHT22;2012;49.794;9.722;2022-12-29T15:00:47;11.70;99.90
3996;DHT22;2012;49.794;9.722;2022-12-29T15:03:20;11.60;99.90
3996;DHT22;2012;49.794;9.722;2022-12-29T15:08:24;11.40;99.90
3996;DHT22;2012;49.794;9.722;2022-12-29T15:11:04;11.20;99.90
3996;DHT22;2012;49.794;9.722;2022-12-29T15:13:38;11.10;99.90
3996;DHT22;2012;49.794;9.722;2022-12-29T15:18:56;11.00;99.90
3996;DHT22;2012;49.794;9.722;2022-12-29T15:21:29;10.90;99.90
3996;DHT22;2012;49.794;9.722;2022-12-29T15:23:56;10.80;99.90
3996;DHT22;2012;49.794;9.722;2022-12-29T15:26:23;10.70;99.90
3996;DHT22;2012;49.794;9.722;2022-12-29T15:29:02;10.70;99.90
3996;DHT22;2012;49.794;9.722;2022-12-29T15:31:29;10.60;99.90
3996;DHT22;2012;49.794;9.722;2022-12-29T15:34:10;10.50;99.90
3996;DHT22;2012;49.794;9.722;2022-12-29T15:36:40;10.50;99.90
3996;DHT22;2012;49.794;9.722;2022-12-29T15:39:26;10.40;99.90
3996;DHT22;2012;49.794;9.722;2022-12-29T15:41:57;10.40;99.90
3996;DHT22;2012;49.794;9.722;2022-12-29T15:44:38;10.50;99.90
3996;DHT22;2012;49.794;9.722;2022-12-29T15:47:12;10.30;99.90
3996;DHT22;2012;49.794;9.722;2022-12-29T15:49:42;10.20;99.90
3996;DHT22;2012;49.794;9.722;2022-12-29T15:52:10;10.20;99.90
3996;DHT22;2012;49.794;9.722;2022-12-29T15:54:37;10.20;99.90
3996;DHT22;2012;49.794;9.722;2022-12-29T15:57:23;10.00;99.90
3996;DHT22;2012;49.794;9.722;2022-12-29T15:59:51;10.00;99.90
3996;DHT22;2012;49.794;9.722;2022-12-29T16:02:18;10.00;99.90
3996;DHT22;2012;49.794;9.722;2022-12-29T16:04:45;10.00;99.90
3996;DHT22;2012;49.794;9.722;2022-12-29T16:07:33;10.00;99.90
3996;DHT22;2012;49.794;9.722;2022-12-29T16:10:38;10.10;99.90
3996;DHT22;2012;49.794;9.722;2022-12-29T16:13:23;10.00;99.90
3996;DHT22;2012;49.794;9.722;2022-12-29T16:16:00;9.90;99.90
3996;DHT22;2012;49.794;9.722;2022-12-29T16:18:36;10.00;99.90
3996;DHT22;2012;49.794;9.722;2022-12-29T16:21:05;9.90;99.90
3996;DHT22;2012;49.794;9.722;2022-12-29T16:23:35;9.80;99.90
3996;DHT22;2012;49.794;9.722;2022-12-29T16:26:03;9.90;99.90
3996;DHT22;2012;49.794;9.722;2022-12-29T16:28:41;9.80;99.90
3996;DHT22;2012;49.794;9.722;2022-12-29T16:31:34;9.70;99.90
3996;DHT22;2012;49.794;9.722;2022-12-29T16:37:02;9.90;99.90
3996;DHT22;2012;49.794;9.722;2022-12-29T16:39:39;9.80;99.90
3996;DHT22;2012;49.794;9.722;2022-12-29T16:47:48;9.80;99.90
3996;DHT22;2012;49.794;9.722;2022-12-29T16:50:39;9.60;99.90
3996;DHT22;2012;49.794;9.722;2022-12-29T16:53:20;9.70;99.90
3996;DHT22;2012;49.794;9.722;2022-12-29T16:55:48;9.60;99.90
3996;DHT22;2012;49.794;9.722;2022-12-29T16:58:20;9.60;99.90
3996;DHT22;2012;49.794;9.722;2022-12-29T17:00:47;9.60;99.90
3996;DHT22;2012;49.794;9.722;2022-12-29T17:03:15;9.50;99.90
3996;DHT22;2012;49.794;9.722;2022-12-29T17:05:42;9.60;99.90
3996;DHT22;2012;49.794;9.722;2022-12-29T17:08:20;9.50;99.90
3996;DHT22;2012;49.794;9.722;2022-12-29T17:10:52;9.50;99.90
3996;DHT22;2012;49.794;9.722;2022-12-29T17:13:38;9.50;99.90
3996;DHT22;2012;49.794;9.722;2022-12-29T17:16:06;9.50;99.90
3996;DHT22;2012;49.794;9.722;2022-12-29T17:18:34;9.40;99.90
3996;DHT22;2012;49.794;9.722;2022-12-29T17:21:01;9.50;99.90
3996;DHT22;2012;49.794;9.722;2022-12-29T17:23:30;9.40;99.90
3996;DHT22;2012;49.794;9.722;2022-12-29T17:25:57;9.50;99.90
3996;DHT22;2012;49.794;9.722;2022-12-29T17:28:29;9.50;99.90
3996;DHT22;2012;49.794;9.722;2022-12-29T17:31:01;9.50;99.90
3996;DHT22;2012;49.794;9.722;2022-12-29T17:33:31;9.40;99.90
3996;DHT22;2012;49.794;9.722;2022-12-29T17:36:00;9.40;99.90
3996;DHT22;2012;49.794;9.722;2022-12-29T17:38:29;9.40;99.90
3996;DHT22;2012;49.794;9.722;2022-12-29T17:40:57;9.50;99.90
3996;DHT22;2012;49.794;9.722;2022-12-29T17:43:24;9.50;99.90
3996;DHT22;2012;49.794;9.722;2022-12-29T17:45:54;9.40;99.90
3996;DHT22;2012;49.794;9.722;2022-12-29T17:48:22;9.40;99.90
3996;DHT22;2012;49.794;9.722;2022-12-29T17:50:51;9.40;99.90
3996;DHT22;2012;49.794;9.722;2022-12-29T17:53:23;9.40;99.90
3996;DHT22;2012;49.794;9.722;2022-12-29T17:55:51;9.30;99.90
3996;DHT22;2012;49.794;9.722;2022-12-29T17:58:20;9.30;99.90
3996;DHT22;2012;49.794;9.722;2022-12-29T18:00:50;9.30;99.90
3996;DHT22;2012;49.794;9.722;2022-12-29T18:03:26;9.30;99.90
3996;DHT22;2012;49.794;9.722;2022-12-29T18:05:54;9.30;99.90
3996;DHT22;2012;49.794;9.722;2022-12-29T18:08:21;9.30;99.90
3996;DHT22;2012;49.794;9.722;2022-12-29T18:10:50;9.30;99.90
3996;DHT22;2012;49.794;9.722;2022-12-29T18:13:22;9.30;99.90
3996;DHT22;2012;49.794;9.722;2022-12-29T18:15:53;9.30;99.90
3996;DHT22;2012;49.794;9.722;2022-12-29T18:18:23;9.20;99.90
3996;DHT22;2012;49.794;9.722;2022-12-29T18:20:53;9.30;99.90
3996;DHT22;2012;49.794;9.722;2022-12-29T18:23:26;9.20;99.90
3996;DHT22;2012;49.794;9.722;2022-12-29T18:26:00;9.30;99.90
3996;DHT22;2012;49.794;9.722;2022-12-29T18:28:27;9.20;99.90
3996;DHT22;2012;49.794;9.722;2022-12-29T18:30:56;9.20;99.90
3996;DHT22;2012;49.794;9.722;2022-12-29T18:33:23;9.30;99.90
3996;DHT22;2012;49.794;9.722;2022-12-29T18:35:54;9.30;99.90